Strona główna
METAR-TAF:

METAR-TAF

Lotnisko :

Izmir, Turcja

Szerokość geograficzna: 38-30N, Długość geograficzna: 027-01E, wysokość: 5 m

METAR: brakujący

czas: 14:43 (11:43 UTC)

Prognoza

Raport powstał 1 godzina i 3 minut temu, godzina 10:40 UTC
Prognoza ważna od 19 godzina 12 UTC do 19 godzina 21 UTC
Wiatr 2 kt z kierunków zmiennych
Widzialność 10 km lub więcej
Mało chmury na wysokości 4000 ft
Przerywane chmury na wysokości 20000 ft

TAF: LTBL 191040Z 1912/1921 VRB02KT 9999 FEW040 BKN200

Obserwacja i prognoza pogody dla ponad 4000 lotnisk (raport METAR i TAF).

Dostępne stacje oznaczono żółtymi i czerwonymi punktami na mapie.

Najedź kursorem aby zobaczyć nazwę stacji.

Kliknij aby zobaczyć obserwacje i prognozy pogody.

Aby zmienić mapę: kliknij na zielony przycisk z czarnym krzyżykiem, aby powiększyć; na zielony przycisk z myślnikiem, aby pomniejszyć; na zielone strzałki, aby przejść do map sąsiednich.


METAR-TAF: